createdAt,value
2022-12-11T00:01:09.611Z,4.97
2022-12-11T00:04:12.155Z,3.88
2022-12-11T00:07:14.723Z,3.63
2022-12-11T00:10:17.283Z,3.90
2022-12-11T00:13:21.126Z,4.10
2022-12-11T00:16:26.863Z,4.97
2022-12-11T00:19:29.914Z,3.83
2022-12-11T00:22:32.489Z,4.00
2022-12-11T00:25:34.946Z,3.27
2022-12-11T00:28:39.184Z,3.17
2022-12-11T00:31:42.261Z,5.10
2022-12-11T00:34:44.843Z,3.50
2022-12-11T00:37:47.367Z,2.95
2022-12-11T00:40:50.573Z,2.77
2022-12-11T00:43:54.457Z,3.22
2022-12-11T00:46:56.999Z,19.63
2022-12-11T00:49:59.598Z,2.88
2022-12-11T00:53:02.531Z,6.18
2022-12-11T00:56:10.592Z,3.37
2022-12-11T00:59:14.441Z,3.65
2022-12-11T01:02:16.960Z,3.45
2022-12-11T01:05:19.639Z,3.15
2022-12-11T01:08:22.295Z,2.83
2022-12-11T01:11:24.943Z,2.70
2022-12-11T01:14:29.910Z,3.00
2022-12-11T01:17:32.411Z,2.20
2022-12-11T01:20:35.032Z,2.67
2022-12-11T01:23:38.323Z,6.10
2022-12-11T01:26:40.873Z,2.87
2022-12-11T01:29:44.796Z,4.35
2022-12-11T01:32:47.594Z,3.83
2022-12-11T01:35:50.048Z,3.25
2022-12-11T01:38:54.418Z,4.38
2022-12-11T01:41:57.771Z,3.10
2022-12-11T01:45:30.395Z,4.25
2022-12-11T01:48:34.088Z,2.28
2022-12-11T01:51:42.527Z,3.28
2022-12-11T01:54:48.381Z,2.05
2022-12-11T01:57:52.809Z,2.60
2022-12-11T02:00:58.161Z,2.30
2022-12-11T02:04:01.699Z,2.33
2022-12-11T02:07:04.461Z,2.47
2022-12-11T02:10:08.700Z,2.70
2022-12-11T02:13:17.145Z,2.47
2022-12-11T02:16:26.365Z,1.90
2022-12-11T02:19:44.367Z,2.92
2022-12-11T02:23:19.617Z,3.60
2022-12-11T02:26:35.118Z,3.08
2022-12-11T02:29:46.072Z,4.40
2022-12-11T02:32:54.762Z,3.50
2022-12-11T02:35:57.844Z,3.85
2022-12-11T02:39:03.500Z,3.78
2022-12-11T02:42:08.532Z,6.50
2022-12-11T02:45:13.951Z,3.43
2022-12-11T02:48:17.906Z,2.67
2022-12-11T02:51:25.766Z,3.55
2022-12-11T02:54:31.795Z,2.33
2022-12-11T02:57:39.712Z,1.42
2022-12-11T03:00:44.481Z,2.27
2022-12-11T03:03:47.611Z,1.52
2022-12-11T03:06:53.842Z,6.65
2022-12-11T03:09:56.547Z,2.15
2022-12-11T03:13:01.120Z,3.10
2022-12-11T03:16:14.536Z,2.87
2022-12-11T03:19:27.859Z,3.08
2022-12-11T03:22:37.344Z,6.10
2022-12-11T03:25:46.872Z,3.53
2022-12-11T03:28:56.301Z,3.13
2022-12-11T03:32:06.454Z,3.20
2022-12-11T03:35:13.964Z,3.08
2022-12-11T03:38:23.104Z,2.25
2022-12-11T03:41:28.166Z,3.72
2022-12-11T03:44:33.508Z,3.83
2022-12-11T03:47:39.976Z,3.27
2022-12-11T03:50:43.604Z,2.78
2022-12-11T03:53:47.467Z,2.70
2022-12-11T03:56:53.608Z,1.95
2022-12-11T03:59:56.512Z,2.75
2022-12-11T04:03:16.107Z,3.53
2022-12-11T04:06:18.757Z,3.10
2022-12-11T04:09:21.267Z,3.17
2022-12-11T04:12:24.051Z,2.67
2022-12-11T04:15:26.553Z,2.22
2022-12-11T04:19:05.604Z,2.03
2022-12-11T04:22:28.395Z,2.22
2022-12-11T04:25:30.915Z,5.25
2022-12-11T04:28:33.436Z,11.73
2022-12-11T04:31:36.009Z,10.70
2022-12-11T04:34:40.751Z,12.23
2022-12-11T04:37:43.375Z,11.63
2022-12-11T04:40:45.911Z,11.88
2022-12-11T04:43:48.455Z,9.38
2022-12-11T04:46:51.056Z,11.02
2022-12-11T04:49:55.073Z,9.87
2022-12-11T04:52:57.976Z,13.25
2022-12-11T04:56:00.498Z,12.10
2022-12-11T04:59:03.011Z,12.07
2022-12-11T05:02:05.654Z,12.85
2022-12-11T05:05:11.327Z,13.10
2022-12-11T05:08:13.970Z,12.35
2022-12-11T05:11:16.806Z,10.55
2022-12-11T05:14:19.438Z,13.50
2022-12-11T05:17:22.299Z,11.35
2022-12-11T05:20:26.224Z,11.93
2022-12-11T05:23:29.096Z,11.05
2022-12-11T05:26:31.631Z,12.55
2022-12-11T05:29:34.273Z,10.52
2022-12-11T05:32:36.976Z,13.05
2022-12-11T05:35:50.517Z,12.83
2022-12-11T05:38:53.621Z,10.70
2022-12-11T05:41:56.596Z,11.52
2022-12-11T05:44:59.100Z,11.70
2022-12-11T05:48:01.782Z,11.45
2022-12-11T05:51:08.348Z,11.33
2022-12-11T05:54:11.031Z,12.05
2022-12-11T05:57:13.562Z,12.15
2022-12-11T06:00:16.381Z,11.50
2022-12-11T06:03:18.934Z,11.20
2022-12-11T06:06:23.995Z,13.87
2022-12-11T06:09:26.467Z,10.55
2022-12-11T06:12:29.885Z,12.07
2022-12-11T06:15:32.849Z,11.77
2022-12-11T06:18:37.236Z,8.57
2022-12-11T06:21:41.276Z,13.17
2022-12-11T06:24:43.886Z,13.25
2022-12-11T06:27:46.412Z,11.60
2022-12-11T06:30:48.978Z,11.40
2022-12-11T06:33:51.489Z,12.50
2022-12-11T06:36:55.332Z,14.83
2022-12-11T06:39:57.911Z,11.82
2022-12-11T06:43:00.419Z,10.88
2022-12-11T06:46:04.644Z,11.18
2022-12-11T06:49:07.252Z,15.80
2022-12-11T06:52:15.088Z,15.50
2022-12-11T06:55:21.147Z,14.30
2022-12-11T06:58:23.752Z,13.68
2022-12-11T07:01:28.185Z,19.25
2022-12-11T07:04:30.993Z,13.35
2022-12-11T07:07:35.267Z,16.40
2022-12-11T07:10:39.569Z,16.25
2022-12-11T07:13:42.769Z,26.15
2022-12-11T07:16:45.303Z,20.35
2022-12-11T07:19:47.917Z,19.20
2022-12-11T07:22:51.809Z,20.73
2022-12-11T07:25:55.690Z,18.92
2022-12-11T07:29:00.540Z,19.60
2022-12-11T07:32:03.193Z,16.75
2022-12-11T07:35:06.764Z,17.33
2022-12-11T07:38:10.754Z,16.00
2022-12-11T07:41:15.367Z,14.38
2022-12-11T07:44:18.047Z,18.23
2022-12-11T07:47:20.707Z,16.95
2022-12-11T07:50:23.462Z,17.75
2022-12-11T07:53:27.327Z,17.77
2022-12-11T07:56:30.571Z,22.38
2022-12-11T07:59:33.889Z,21.02
2022-12-11T08:02:37.687Z,20.08
2022-12-11T08:05:40.386Z,17.55
2022-12-11T08:08:44.307Z,19.47
2022-12-11T08:11:48.554Z,20.63
2022-12-11T08:14:51.142Z,17.15
2022-12-11T08:17:53.745Z,18.15
2022-12-11T08:20:56.363Z,22.23
2022-12-11T08:24:00.380Z,17.43
2022-12-11T08:27:03.165Z,19.15
2022-12-11T08:30:07.063Z,19.52
2022-12-11T08:33:09.580Z,17.23
2022-12-11T08:36:14.573Z,21.73
2022-12-11T08:39:18.525Z,20.90
2022-12-11T08:42:21.368Z,16.65
2022-12-11T08:45:24.008Z,15.90
2022-12-11T08:48:26.494Z,16.05
2022-12-11T08:51:30.281Z,22.65
2022-12-11T08:54:37.069Z,18.87
2022-12-11T08:57:39.853Z,19.23
2022-12-11T09:00:42.502Z,15.27
2022-12-11T09:03:45.148Z,16.08
2022-12-11T09:06:47.694Z,17.52
2022-12-11T09:09:51.620Z,21.13
2022-12-11T09:12:54.156Z,19.00
2022-12-11T09:15:56.941Z,20.88
2022-12-11T09:19:00.248Z,23.30
2022-12-11T09:22:02.856Z,29.80
2022-12-11T09:25:07.964Z,41.80
2022-12-11T09:28:10.682Z,28.75
2022-12-11T09:31:15.844Z,20.52
2022-12-11T09:34:18.754Z,17.20
2022-12-11T09:37:21.417Z,18.65
2022-12-11T09:40:25.892Z,18.43
2022-12-11T09:43:38.089Z,21.23
2022-12-11T09:46:41.748Z,25.33
2022-12-11T09:49:46.362Z,24.38
2022-12-11T09:53:00.288Z,26.88
2022-12-11T09:56:16.511Z,24.10
2022-12-11T09:59:28.884Z,23.85
2022-12-11T10:02:40.871Z,24.35
2022-12-11T10:05:51.240Z,25.30
2022-12-11T10:09:07.018Z,22.02
2022-12-11T10:12:23.716Z,22.93
2022-12-11T10:15:35.414Z,20.30
2022-12-11T10:18:38.762Z,19.98
2022-12-11T10:21:42.464Z,17.95
2022-12-11T10:25:10.806Z,20.38
2022-12-11T10:28:16.949Z,18.23
2022-12-11T10:31:23.985Z,18.70
2022-12-11T10:34:34.604Z,17.13
2022-12-11T10:37:37.113Z,15.63
2022-12-11T10:40:43.519Z,16.65
2022-12-11T10:43:49.668Z,17.23
2022-12-11T10:47:03.595Z,18.63
2022-12-11T10:50:06.642Z,18.17
2022-12-11T10:53:21.185Z,17.77
2022-12-11T10:56:28.606Z,18.35
2022-12-11T10:59:36.271Z,20.27
2022-12-11T11:02:42.812Z,19.25
2022-12-11T11:05:49.353Z,18.90
2022-12-11T11:08:54.188Z,18.63
2022-12-11T11:11:56.857Z,21.33
2022-12-11T11:15:02.828Z,17.33
2022-12-11T11:18:12.878Z,22.67
2022-12-11T11:21:17.736Z,18.67
2022-12-11T11:24:33.392Z,23.30
2022-12-11T11:27:43.569Z,22.90
2022-12-11T11:30:58.410Z,16.23
2022-12-11T11:34:05.646Z,17.17
2022-12-11T11:37:24.186Z,18.98
2022-12-11T11:40:30.528Z,20.13
2022-12-11T11:43:38.809Z,24.42
2022-12-11T11:46:47.801Z,23.90
2022-12-11T11:49:58.265Z,24.63
2022-12-11T11:53:08.532Z,19.75
2022-12-11T11:56:21.298Z,20.80
2022-12-11T11:59:31.248Z,18.73
2022-12-11T12:02:35.681Z,15.13
2022-12-11T12:05:46.709Z,17.05
2022-12-11T12:08:58.000Z,16.65
2022-12-11T12:12:10.720Z,18.95
2022-12-11T12:15:26.682Z,53.97
2022-12-11T12:18:39.642Z,22.43
2022-12-11T12:21:48.107Z,30.60
2022-12-11T12:25:03.345Z,52.30
2022-12-11T12:28:19.027Z,89.38
2022-12-11T12:31:37.778Z,68.57
2022-12-11T12:34:56.149Z,22.90
2022-12-11T12:38:09.431Z,19.98
2022-12-11T12:41:20.094Z,17.65
2022-12-11T12:44:25.077Z,30.90
2022-12-11T12:47:30.700Z,50.35
2022-12-11T12:50:43.016Z,75.27
2022-12-11T12:54:35.810Z,59.03
2022-12-11T12:57:40.099Z,45.45
2022-12-11T13:00:44.176Z,63.80
2022-12-11T13:03:54.354Z,51.63
2022-12-11T13:06:58.382Z,47.70
2022-12-11T13:10:07.953Z,55.75
2022-12-11T13:13:32.033Z,37.55
2022-12-11T13:16:37.208Z,26.40
2022-12-11T13:19:42.777Z,24.27
2022-12-11T13:23:18.435Z,24.17
2022-12-11T13:26:30.580Z,21.38
2022-12-11T13:29:36.113Z,20.58
2022-12-11T13:32:39.638Z,25.55
2022-12-11T13:35:43.000Z,19.23
2022-12-11T13:38:49.053Z,25.70
2022-12-11T13:41:57.259Z,25.48
2022-12-11T13:45:01.619Z,26.08
2022-12-11T13:48:16.636Z,24.33
2022-12-11T13:51:21.883Z,26.63
2022-12-11T13:54:25.677Z,30.50
2022-12-11T13:57:29.810Z,23.92
2022-12-11T14:00:33.040Z,33.40
2022-12-11T14:03:35.913Z,37.20
2022-12-11T14:06:39.849Z,30.95
2022-12-11T14:09:45.704Z,21.87
2022-12-11T14:12:53.660Z,26.33
2022-12-11T14:15:56.300Z,26.42
2022-12-11T14:19:04.179Z,24.50
2022-12-11T14:22:08.003Z,24.33
2022-12-11T14:25:24.840Z,16.80
2022-12-11T14:28:35.690Z,16.33
2022-12-11T14:31:42.311Z,18.65
2022-12-11T14:34:47.816Z,19.98
2022-12-11T14:37:52.408Z,22.73
2022-12-11T14:40:59.308Z,25.03
2022-12-11T14:44:07.137Z,27.65
2022-12-11T14:47:15.791Z,33.05
2022-12-11T14:50:23.135Z,29.23
2022-12-11T14:53:29.272Z,27.15
2022-12-11T14:56:32.816Z,31.93
2022-12-11T14:59:44.153Z,28.50
2022-12-11T15:02:57.476Z,26.23
2022-12-11T15:06:00.549Z,26.08
2022-12-11T15:09:16.477Z,31.08
2022-12-11T15:12:20.368Z,15.73
2022-12-11T15:15:24.857Z,14.63
2022-12-11T15:18:31.102Z,26.13
2022-12-11T15:21:36.282Z,20.58
2022-12-11T15:24:42.033Z,17.67
2022-12-11T15:27:44.759Z,23.90
2022-12-11T15:30:57.082Z,30.15
2022-12-11T15:34:02.455Z,40.53
2022-12-11T15:37:17.723Z,34.97
2022-12-11T15:40:21.845Z,30.05
2022-12-11T15:43:25.531Z,17.50
2022-12-11T15:46:30.700Z,21.38
2022-12-11T15:49:33.466Z,15.73
2022-12-11T15:52:36.324Z,16.75
2022-12-11T15:55:39.529Z,16.50
2022-12-11T15:58:44.588Z,17.80
2022-12-11T16:01:49.252Z,23.42
2022-12-11T16:04:52.094Z,18.38
2022-12-11T16:07:56.549Z,26.17
2022-12-11T16:10:59.164Z,24.77
2022-12-11T16:14:05.940Z,25.40
2022-12-11T16:17:13.200Z,36.95
2022-12-11T16:20:15.968Z,48.33
2022-12-11T16:23:19.132Z,35.55
2022-12-11T16:26:21.719Z,27.25
2022-12-11T16:29:24.355Z,40.43
2022-12-11T16:32:28.226Z,32.45
2022-12-11T16:35:31.250Z,43.67
2022-12-11T16:38:35.766Z,28.40
2022-12-11T16:41:38.461Z,21.23
2022-12-11T16:44:44.371Z,23.37
2022-12-11T16:47:48.866Z,23.55
2022-12-11T16:50:53.611Z,28.20
2022-12-11T16:53:56.311Z,21.00
2022-12-11T16:56:59.090Z,22.25
2022-12-11T17:00:01.956Z,24.47
2022-12-11T17:03:06.519Z,27.60
2022-12-11T17:06:10.517Z,22.05
2022-12-11T17:09:13.415Z,27.30
2022-12-11T17:12:15.995Z,32.25
2022-12-11T17:15:19.025Z,28.10
2022-12-11T17:18:23.101Z,36.63
2022-12-11T17:21:25.728Z,42.20
2022-12-11T17:24:29.563Z,43.05
2022-12-11T17:27:33.612Z,37.42
2022-12-11T17:30:40.746Z,41.13
2022-12-11T17:33:45.692Z,39.75
2022-12-11T17:36:48.567Z,40.78
2022-12-11T17:39:51.228Z,30.67
2022-12-11T17:42:53.904Z,34.80
2022-12-11T17:45:56.711Z,29.63
2022-12-11T17:49:02.410Z,33.42
2022-12-11T17:52:05.367Z,40.75
2022-12-11T17:55:09.062Z,44.83
2022-12-11T17:58:12.237Z,74.28
2022-12-11T18:01:14.967Z,69.07
2022-12-11T18:04:19.072Z,45.97
2022-12-11T18:07:22.617Z,40.42
2022-12-11T18:10:26.887Z,38.33
2022-12-11T18:13:29.736Z,29.45
2022-12-11T18:16:35.085Z,32.60
2022-12-11T18:19:45.698Z,25.98
2022-12-11T18:22:49.124Z,28.80
2022-12-11T18:25:52.275Z,43.85
2022-12-11T18:28:55.245Z,102.30
2022-12-11T18:31:58.108Z,78.57
2022-12-11T18:35:03.109Z,54.83
2022-12-11T18:38:06.088Z,42.45
2022-12-11T18:41:11.702Z,32.63
2022-12-11T18:44:21.702Z,33.30
2022-12-11T18:47:24.676Z,34.63
2022-12-11T18:50:28.891Z,40.25
2022-12-11T18:53:34.720Z,29.17
2022-12-11T18:56:38.779Z,33.33
2022-12-11T18:59:41.505Z,38.47
2022-12-11T19:02:44.212Z,32.93
2022-12-11T19:05:48.455Z,32.38
2022-12-11T19:08:51.621Z,29.00
2022-12-11T19:11:54.889Z,31.13
2022-12-11T19:14:58.806Z,23.73
2022-12-11T19:18:01.641Z,29.10
2022-12-11T19:21:12.519Z,25.75
2022-12-11T19:24:19.784Z,24.55
2022-12-11T19:27:22.631Z,28.73
2022-12-11T19:30:26.120Z,24.00
2022-12-11T19:33:29.312Z,29.47
2022-12-11T19:36:34.844Z,31.20
2022-12-11T19:39:38.637Z,38.03
2022-12-11T19:42:41.880Z,29.38
2022-12-11T19:45:45.882Z,30.33
2022-12-11T19:48:49.898Z,33.87
2022-12-11T19:51:54.051Z,32.90
2022-12-11T19:55:01.298Z,36.38
2022-12-11T19:58:04.025Z,37.42
2022-12-11T20:01:07.497Z,44.25
2022-12-11T20:04:14.839Z,29.07
2022-12-11T20:07:19.188Z,34.22
2022-12-11T20:10:22.048Z,37.97
2022-12-11T20:13:24.739Z,33.53
2022-12-11T20:16:46.331Z,30.52
2022-12-11T20:19:50.456Z,31.37
2022-12-11T20:22:57.341Z,38.40
2022-12-11T20:26:06.444Z,35.20
2022-12-11T20:29:09.314Z,30.55
2022-12-11T20:32:12.448Z,32.22
2022-12-11T20:35:15.157Z,37.33
2022-12-11T20:38:20.984Z,34.15
2022-12-11T20:41:25.235Z,31.60
2022-12-11T20:44:27.991Z,34.78
2022-12-11T20:47:30.748Z,36.17
2022-12-11T20:50:33.312Z,29.50
2022-12-11T20:53:37.526Z,31.38
2022-12-11T20:56:40.259Z,42.85
2022-12-11T20:59:44.439Z,44.53
2022-12-11T21:02:49.600Z,40.58
2022-12-11T21:05:53.129Z,34.53
2022-12-11T21:08:57.522Z,52.63
2022-12-11T21:12:01.606Z,43.25
2022-12-11T21:15:05.154Z,37.00
2022-12-11T21:18:08.239Z,45.35
2022-12-11T21:21:10.944Z,44.13
2022-12-11T21:24:17.564Z,35.15
2022-12-11T21:27:22.982Z,35.42
2022-12-11T21:30:27.387Z,37.00
2022-12-11T21:33:30.067Z,36.80
2022-12-11T21:36:33.021Z,37.00
2022-12-11T21:39:39.437Z,40.42
2022-12-11T21:42:42.134Z,41.47
2022-12-11T21:46:01.752Z,37.15
2022-12-11T21:49:04.884Z,33.38
2022-12-11T21:52:25.736Z,30.83
2022-12-11T21:55:29.575Z,34.45
2022-12-11T21:58:32.075Z,27.90
2022-12-11T22:01:37.528Z,32.42
2022-12-11T22:04:40.241Z,32.58
2022-12-11T22:07:42.791Z,30.07
2022-12-11T22:10:46.939Z,34.72
2022-12-11T22:13:49.539Z,32.30
2022-12-11T22:16:52.116Z,31.08
2022-12-11T22:19:54.691Z,30.30
2022-12-11T22:22:57.477Z,35.30
2022-12-11T22:26:01.371Z,31.35
2022-12-11T22:29:03.912Z,33.47
2022-12-11T22:32:06.612Z,30.77
2022-12-11T22:35:10.547Z,30.20
2022-12-11T22:38:13.413Z,26.03
2022-12-11T22:41:24.463Z,30.40
2022-12-11T22:44:27.186Z,27.13
2022-12-11T22:47:29.739Z,29.17
2022-12-11T22:50:36.591Z,25.70
2022-12-11T22:53:39.151Z,28.23
2022-12-11T22:56:43.247Z,30.73
2022-12-11T22:59:46.077Z,28.90
2022-12-11T23:02:48.976Z,29.15
2022-12-11T23:05:51.596Z,25.15
2022-12-11T23:08:57.437Z,24.47
2022-12-11T23:12:01.631Z,25.85
2022-12-11T23:15:04.987Z,28.63
2022-12-11T23:18:07.610Z,22.00
2022-12-11T23:21:11.128Z,24.30
2022-12-11T23:24:13.660Z,22.33
2022-12-11T23:27:17.621Z,27.10
2022-12-11T23:30:21.575Z,23.08
2022-12-11T23:33:24.210Z,27.52
2022-12-11T23:36:28.042Z,20.63
2022-12-11T23:39:30.509Z,21.43
2022-12-11T23:42:34.984Z,22.98
2022-12-11T23:45:37.896Z,28.58
2022-12-11T23:48:40.952Z,24.85
2022-12-11T23:51:43.659Z,27.45
2022-12-11T23:54:46.458Z,24.90
2022-12-11T23:57:50.440Z,22.80
